Time;durP1;ratioP1;P1;durP2;ratioP2;P2;SDS_P1;SDS_P2;PMS_P1;PMS_P2;Temp;Humidity;BMP_temperature;BMP_pressure;BME280_temperature;BME280_humidity;BME280_pressure;Samples;Min_cycle;Max_cycle;Signal;HPM_P1;HPM_P2
2022/11/17 00:06:13;;;;;;;2.05;0.60;;;;;;;;;;20926600;28;20073;-63
2022/11/17 00:16:16;;;;;;;3.33;1.40;;;;;;;;;;20925742;28;20067;-65
2022/11/17 00:26:20;;;;;;;0.88;0.50;;;;;;;;;;20923816;28;20065;-68
2022/11/17 00:36:24;;;;;;;0.60;0.40;;;;;;;;;;20906625;28;20148;-69
2022/11/17 00:46:27;;;;;;;0.68;0.20;;;;;;;;;;20923851;28;20469;-66
2022/11/17 00:56:29;;;;;;;0.52;0.30;;;;;;;;;;20904238;28;20412;-70
2022/11/17 01:06:35;;;;;;;0.77;0.22;;;;;;;;;;20921891;28;20049;-63
2022/11/17 01:16:37;;;;;;;0.55;0.22;;;;;;;;;;20921287;28;20053;-65
2022/11/17 01:26:40;;;;;;;0.22;0.20;;;;;;;;;;20919068;28;20064;-66
2022/11/17 01:47:31;;;;;;;0.40;0.32;;;;;;;;;;20918094;28;20040;-62
2022/11/17 01:57:37;;;;;;;0.57;0.10;;;;;;;;;;20917124;28;20044;-62
2022/11/17 02:07:40;;;;;;;0.40;0.20;;;;;;;;;;20917481;28;20056;-61
2022/11/17 02:17:42;;;;;;;0.17;0.10;;;;;;;;;;20916002;28;20058;-63
2022/11/17 02:28:04;;;;;;;0.75;0.10;;;;;;;;;;20914776;28;20056;-62
2022/11/17 02:38:11;;;;;;;0.20;0.10;;;;;;;;;;20914754;28;20048;-62
2022/11/17 02:48:23;;;;;;;0.38;0.20;;;;;;;;;;20914033;28;20049;-62
2022/11/17 02:58:34;;;;;;;0.80;0.50;;;;;;;;;;20914360;28;20049;-62
2022/11/17 03:08:47;;;;;;;0.98;0.20;;;;;;;;;;20913244;28;20049;-61
2022/11/17 03:19:03;;;;;;;0.28;0.10;;;;;;;;;;20913118;28;20049;-62
2022/11/17 03:29:09;;;;;;;0.55;0.35;;;;;;;;;;20912140;28;20098;-61
2022/11/17 03:39:20;;;;;;;1.95;0.20;;;;;;;;;;20912679;28;20053;-61
2022/11/17 03:49:29;;;;;;;1.63;0.63;;;;;;;;;;20912363;28;20045;-61
2022/11/17 03:59:42;;;;;;;1.53;0.47;;;;;;;;;;20911334;28;20067;-62
2022/11/17 04:09:46;;;;;;;2.92;0.40;;;;;;;;;;20926166;28;20409;-61
2022/11/17 04:19:50;;;;;;;1.50;0.35;;;;;;;;;;20924553;28;20045;-61
2022/11/17 04:29:53;;;;;;;2.60;0.30;;;;;;;;;;20924557;28;20041;-62
2022/11/17 04:40:11;;;;;;;1.58;0.35;;;;;;;;;;20908982;28;20060;-62
2022/11/17 04:50:33;;;;;;;3.83;0.20;;;;;;;;;;20924249;28;20047;-63
2022/11/17 05:00:38;;;;;;;1.92;0.40;;;;;;;;;;20922261;28;20509;-62
2022/11/17 05:21:06;;;;;;;1.88;0.30;;;;;;;;;;20921044;28;20057;-61
2022/11/17 05:31:09;;;;;;;0.98;0.30;;;;;;;;;;20920098;28;20123;-62
2022/11/17 05:41:12;;;;;;;0.13;0.10;;;;;;;;;;20918484;28;20091;-63
2022/11/17 05:51:15;;;;;;;0.95;0.10;;;;;;;;;;20899981;28;20052;-64
2022/11/17 06:01:19;;;;;;;0.30;0.10;;;;;;;;;;20899044;28;20053;-69
2022/11/17 06:11:21;;;;;;;1.10;0.20;;;;;;;;;;20916819;28;20473;-65
2022/11/17 06:21:23;;;;;;;2.47;0.20;;;;;;;;;;20915611;28;20103;-68
2022/11/17 06:31:26;;;;;;;0.40;0.20;;;;;;;;;;20915246;28;20154;-63
2022/11/17 06:41:29;;;;;;;1.30;0.10;;;;;;;;;;20915075;28;20049;-60
2022/11/17 06:51:31;;;;;;;1.05;0.20;;;;;;;;;;20914139;28;20076;-62
2022/11/17 07:01:33;;;;;;;0.73;0.40;;;;;;;;;;20914161;28;20057;-61
2022/11/17 07:11:35;;;;;;;0.50;0.20;;;;;;;;;;20914525;28;20500;-60
2022/11/17 07:21:38;;;;;;;0.45;0.20;;;;;;;;;;20913009;28;20055;-61
2022/11/17 07:31:40;;;;;;;0.60;0.50;;;;;;;;;;20913631;28;20180;-63
2022/11/17 07:41:42;;;;;;;0.43;0.28;;;;;;;;;;20923577;28;20130;-63
2022/11/17 07:51:44;;;;;;;1.65;0.22;;;;;;;;;;20910029;28;20139;-62
2022/11/17 08:01:46;;;;;;;0.77;0.30;;;;;;;;;;20926512;28;20095;-69
2022/11/17 08:11:48;;;;;;;0.90;0.43;;;;;;;;;;20925408;28;20488;-65
2022/11/17 08:21:50;;;;;;;0.98;0.50;;;;;;;;;;20925117;28;20053;-67
2022/11/17 08:31:52;;;;;;;0.60;0.32;;;;;;;;;;20924329;28;20412;-68
2022/11/17 08:41:54;;;;;;;1.05;0.47;;;;;;;;;;20924152;28;20049;-68
2022/11/17 08:51:56;;;;;;;2.25;0.75;;;;;;;;;;20923511;28;20057;-68
2022/11/17 09:01:58;;;;;;;2.20;0.50;;;;;;;;;;20922163;28;20132;-69
2022/11/17 09:12:00;;;;;;;21.65;14.07;;;;;;;;;;20921101;28;20080;-67
2022/11/17 09:22:02;;;;;;;0.90;0.47;;;;;;;;;;20919440;28;20515;-69
2022/11/17 09:32:04;;;;;;;0.93;0.30;;;;;;;;;;20919883;28;20106;-68
2022/11/17 09:42:13;;;;;;;7.67;1.07;;;;;;;;;;20919540;28;20409;-67
2022/11/17 09:52:25;;;;;;;0.80;0.25;;;;;;;;;;20918609;28;20432;-67
2022/11/17 10:02:27;;;;;;;0.65;0.20;;;;;;;;;;20916207;28;20052;-67
2022/11/17 10:12:35;;;;;;;0.70;0.20;;;;;;;;;;20916377;28;20053;-60
2022/11/17 10:22:38;;;;;;;1.63;0.40;;;;;;;;;;20915865;28;20509;-64
2022/11/17 10:32:47;;;;;;;0.30;0.30;;;;;;;;;;20892686;28;20314;-61
2022/11/17 10:43:16;;;;;;;1.00;0.40;;;;;;;;;;20833821;28;20494;-58
2022/11/17 10:53:29;;;;;;;1.10;0.30;;;;;;;;;;20829345;28;20046;-62
2022/11/17 11:03:35;;;;;;;1.13;0.30;;;;;;;;;;20834590;28;20131;-58
2022/11/17 11:13:42;;;;;;;2.90;0.57;;;;;;;;;;20921999;28;20060;-67
2022/11/17 11:23:47;;;;;;;1.25;0.35;;;;;;;;;;20928706;28;20060;-60
2022/11/17 11:34:09;;;;;;;1.27;0.50;;;;;;;;;;20928634;28;20048;-60
2022/11/17 11:44:11;;;;;;;1.70;0.38;;;;;;;;;;20927770;28;20084;-67
2022/11/17 11:54:16;;;;;;;0.68;0.28;;;;;;;;;;20927444;28;20061;-60
2022/11/17 12:04:23;;;;;;;1.30;0.40;;;;;;;;;;20926549;28;20044;-58
2022/11/17 12:14:26;;;;;;;1.48;0.52;;;;;;;;;;20926112;28;20055;-60
2022/11/17 12:24:36;;;;;;;1.63;0.40;;;;;;;;;;20924165;28;20045;-63
2022/11/17 12:34:40;;;;;;;0.35;0.25;;;;;;;;;;20924791;28;20084;-62
2022/11/17 12:44:43;;;;;;;2.10;0.43;;;;;;;;;;20922978;28;20098;-64
2022/11/17 12:54:51;;;;;;;0.35;0.20;;;;;;;;;;20922561;28;20052;-64
2022/11/17 13:04:57;;;;;;;3.30;0.47;;;;;;;;;;20922289;28;20049;-64
2022/11/17 13:15:03;;;;;;;0.95;0.30;;;;;;;;;;20920894;28;20045;-64
2022/11/17 13:25:20;;;;;;;1.10;0.30;;;;;;;;;;20903223;28;20049;-66
2022/11/17 13:35:24;;;;;;;4.63;0.52;;;;;;;;;;20919545;28;20052;-64
2022/11/17 13:45:26;;;;;;;2.10;0.70;;;;;;;;;;20900931;28;20049;-68
2022/11/17 13:55:29;;;;;;;1.23;0.40;;;;;;;;;;20917848;28;20511;-65
2022/11/17 14:05:32;;;;;;;1.63;0.40;;;;;;;;;;20916089;28;20045;-65
2022/11/17 14:15:36;;;;;;;0.80;0.40;;;;;;;;;;20917631;28;20102;-67
2022/11/17 14:25:42;;;;;;;0.50;0.20;;;;;;;;;;20915204;28;20045;-66
2022/11/17 14:35:49;;;;;;;3.42;0.50;;;;;;;;;;20914347;28;20066;-65
2022/11/17 14:45:52;;;;;;;2.30;0.40;;;;;;;;;;20895831;28;20048;-66
2022/11/17 14:55:54;;;;;;;0.82;0.40;;;;;;;;;;20913936;28;20413;-65
2022/11/17 15:05:56;;;;;;;1.33;0.50;;;;;;;;;;20913267;28;20044;-65
2022/11/17 15:16:02;;;;;;;1.55;0.50;;;;;;;;;;20912763;28;20144;-68
2022/11/17 15:26:11;;;;;;;1.95;0.90;;;;;;;;;;20912134;28;20055;-65
2022/11/17 15:36:14;;;;;;;2.15;0.70;;;;;;;;;;20912639;28;20060;-64
2022/11/17 15:46:17;;;;;;;3.00;1.30;;;;;;;;;;20912350;28;20089;-67
2022/11/17 15:56:26;;;;;;;6.28;2.42;;;;;;;;;;20894610;28;20049;-73
2022/11/17 16:06:29;;;;;;;3.10;1.00;;;;;;;;;;20926163;28;20064;-73
2022/11/17 16:16:32;;;;;;;5.05;1.60;;;;;;;;;;20892378;28;20053;-72
2022/11/17 16:26:35;;;;;;;5.55;2.25;;;;;;;;;;20908584;28;20053;-74
2022/11/17 16:36:38;;;;;;;4.82;1.38;;;;;;;;;;20925021;28;20057;-72
2022/11/17 16:46:44;;;;;;;4.22;1.20;;;;;;;;;;20905315;28;20045;-74
2022/11/17 16:56:46;;;;;;;2.78;0.52;;;;;;;;;;20904442;28;20108;-74
2022/11/17 17:06:48;;;;;;;4.30;0.90;;;;;;;;;;20921990;28;20099;-74
2022/11/17 17:16:51;;;;;;;5.53;1.25;;;;;;;;;;20921449;28;20055;-74
2022/11/17 17:26:53;;;;;;;4.85;1.13;;;;;;;;;;20919627;28;20567;-73
2022/11/17 17:36:55;;;;;;;3.83;0.93;;;;;;;;;;20919986;28;20542;-74
2022/11/17 17:47:01;;;;;;;7.65;2.20;;;;;;;;;;20918368;28;20049;-74
2022/11/17 17:57:04;;;;;;;5.78;1.75;;;;;;;;;;20917645;28;20485;-71
2022/11/17 18:07:05;;;;;;;6.88;1.70;;;;;;;;;;20916604;28;20055;-71
2022/11/17 18:17:07;;;;;;;3.30;0.95;;;;;;;;;;20915823;28;20553;-71
2022/11/17 18:27:10;;;;;;;6.53;1.80;;;;;;;;;;20913848;28;20060;-74
2022/11/17 18:37:12;;;;;;;5.88;1.83;;;;;;;;;;20915312;28;20067;-74
2022/11/17 18:47:14;;;;;;;8.68;1.90;;;;;;;;;;20913773;28;20041;-74
2022/11/17 18:57:17;;;;;;;5.78;1.40;;;;;;;;;;20914332;28;20048;-75
2022/11/17 19:07:19;;;;;;;9.50;1.80;;;;;;;;;;20913421;28;20048;-75
2022/11/17 19:17:21;;;;;;;6.78;1.83;;;;;;;;;;20913509;28;20400;-71
2022/11/17 19:27:23;;;;;;;7.03;1.80;;;;;;;;;;20913281;28;20053;-73
2022/11/17 19:37:26;;;;;;;5.35;1.73;;;;;;;;;;20931554;28;20045;-74
2022/11/17 19:47:28;;;;;;;6.05;1.75;;;;;;;;;;20932866;28;20472;-73
2022/11/17 19:57:30;;;;;;;10.32;2.40;;;;;;;;;;20927780;28;20049;-73
2022/11/17 20:07:32;;;;;;;6.70;2.83;;;;;;;;;;20926535;28;20052;-73
2022/11/17 20:17:34;;;;;;;13.18;3.03;;;;;;;;;;20926304;28;20060;-74
2022/11/17 20:27:36;;;;;;;9.77;2.70;;;;;;;;;;20907338;28;20045;-74
2022/11/17 20:37:38;;;;;;;10.18;2.58;;;;;;;;;;20925803;28;20057;-74
2022/11/17 20:47:40;;;;;;;11.68;3.00;;;;;;;;;;20924302;28;20088;-74
2022/11/17 20:57:42;;;;;;;11.75;3.10;;;;;;;;;;20923437;28;20049;-71
2022/11/17 21:07:44;;;;;;;10.38;2.30;;;;;;;;;;20922945;28;20511;-75
2022/11/17 21:28:08;;;;;;;12.13;3.03;;;;;;;;;;20919222;28;20067;-73
2022/11/17 21:38:10;;;;;;;11.30;2.70;;;;;;;;;;20919385;28;20056;-72
2022/11/17 21:48:13;;;;;;;12.38;2.58;;;;;;;;;;20919630;28;20512;-73
2022/11/17 21:58:15;;;;;;;11.43;3.15;;;;;;;;;;20917821;28;20109;-74
2022/11/17 22:08:17;;;;;;;17.33;5.30;;;;;;;;;;20917465;28;20102;-71
2022/11/17 22:18:19;;;;;;;15.70;3.47;;;;;;;;;;20916466;28;20053;-71
2022/11/17 22:28:21;;;;;;;12.73;3.10;;;;;;;;;;20914744;28;20053;-71
2022/11/17 22:38:27;;;;;;;10.48;2.25;;;;;;;;;;20914656;28;20057;-71
2022/11/17 22:48:30;;;;;;;12.80;4.68;;;;;;;;;;20897017;28;20059;-73
2022/11/17 22:58:32;;;;;;;13.07;2.88;;;;;;;;;;20914447;28;20055;-71
2022/11/17 23:08:34;;;;;;;10.75;3.53;;;;;;;;;;20912653;28;20123;-70
2022/11/17 23:18:37;;;;;;;14.88;3.88;;;;;;;;;;20912800;28;20053;-73
2022/11/17 23:28:40;;;;;;;20.45;3.28;;;;;;;;;;20912226;28;20152;-71
2022/11/17 23:38:42;;;;;;;13.13;3.15;;;;;;;;;;20894996;28;20131;-70
2022/11/17 23:48:44;;;;;;;8.45;2.63;;;;;;;;;;20912164;28;20047;-72
2022/11/17 23:58:46;;;;;;;9.70;2.40;;;;;;;;;;20911863;28;20136;-71
